sensor_id;sensor_type;location;lat;lon;timestamp;P1;durP1;ratioP1;P2;durP2;ratioP2
55007;SDS011;40902;45.116;21.296;2024-03-08T00:01:10;20.65;;;15.80;;
55007;SDS011;40902;45.116;21.296;2024-03-08T00:03:35;21.48;;;14.82;;
55007;SDS011;40902;45.116;21.296;2024-03-08T00:06:01;20.65;;;14.40;;
55007;SDS011;40902;45.116;21.296;2024-03-08T00:08:27;24.05;;;15.77;;
55007;SDS011;40902;45.116;21.296;2024-03-08T00:10:53;23.70;;;15.57;;
55007;SDS011;40902;45.116;21.296;2024-03-08T00:13:19;23.10;;;16.42;;
55007;SDS011;40902;45.116;21.296;2024-03-08T00:15:45;20.20;;;14.50;;
55007;SDS011;40902;45.116;21.296;2024-03-08T00:18:12;22.58;;;14.07;;
55007;SDS011;40902;45.116;21.296;2024-03-08T00:20:37;21.15;;;14.93;;
55007;SDS011;40902;45.116;21.296;2024-03-08T00:23:03;21.23;;;14.77;;
55007;SDS011;40902;45.116;21.296;2024-03-08T00:25:29;20.15;;;14.60;;
55007;SDS011;40902;45.116;21.296;2024-03-08T00:27:55;23.00;;;15.27;;
55007;SDS011;40902;45.116;21.296;2024-03-08T00:30:22;20.42;;;14.95;;
55007;SDS011;40902;45.116;21.296;2024-03-08T00:32:48;18.50;;;14.02;;
55007;SDS011;40902;45.116;21.296;2024-03-08T00:35:14;21.00;;;15.57;;
55007;SDS011;40902;45.116;21.296;2024-03-08T00:37:40;22.50;;;15.35;;
55007;SDS011;40902;45.116;21.296;2024-03-08T00:40:07;22.85;;;15.50;;
55007;SDS011;40902;45.116;21.296;2024-03-08T00:42:34;22.20;;;15.52;;
55007;SDS011;40902;45.116;21.296;2024-03-08T00:45:00;21.27;;;15.15;;
55007;SDS011;40902;45.116;21.296;2024-03-08T00:47:26;20.40;;;14.48;;
55007;SDS011;40902;45.116;21.296;2024-03-08T00:49:52;22.77;;;14.85;;
55007;SDS011;40902;45.116;21.296;2024-03-08T00:52:18;21.45;;;15.52;;
55007;SDS011;40902;45.116;21.296;2024-03-08T00:54:44;23.15;;;15.27;;
55007;SDS011;40902;45.116;21.296;2024-03-08T00:57:10;23.02;;;16.33;;
55007;SDS011;40902;45.116;21.296;2024-03-08T00:59:39;22.75;;;15.10;;
55007;SDS011;40902;45.116;21.296;2024-03-08T01:02:05;21.35;;;14.85;;
55007;SDS011;40902;45.116;21.296;2024-03-08T01:04:31;21.98;;;15.65;;
55007;SDS011;40902;45.116;21.296;2024-03-08T01:06:58;24.23;;;16.58;;
55007;SDS011;40902;45.116;21.296;2024-03-08T01:09:25;25.00;;;16.42;;
55007;SDS011;40902;45.116;21.296;2024-03-08T01:11:52;23.15;;;16.27;;
55007;SDS011;40902;45.116;21.296;2024-03-08T01:14:19;23.48;;;14.95;;
55007;SDS011;40902;45.116;21.296;2024-03-08T01:16:47;22.90;;;15.73;;
55007;SDS011;40902;45.116;21.296;2024-03-08T01:19:14;22.30;;;15.20;;
55007;SDS011;40902;45.116;21.296;2024-03-08T01:21:40;23.23;;;15.95;;
55007;SDS011;40902;45.116;21.296;2024-03-08T01:24:07;20.25;;;15.20;;
55007;SDS011;40902;45.116;21.296;2024-03-08T01:26:33;20.38;;;15.43;;
55007;SDS011;40902;45.116;21.296;2024-03-08T01:29:02;24.45;;;16.15;;
55007;SDS011;40902;45.116;21.296;2024-03-08T01:31:28;20.80;;;15.25;;
55007;SDS011;40902;45.116;21.296;2024-03-08T01:33:55;22.27;;;16.33;;
55007;SDS011;40902;45.116;21.296;2024-03-08T01:36:21;21.48;;;15.55;;
55007;SDS011;40902;45.116;21.296;2024-03-08T01:38:48;22.88;;;15.13;;
55007;SDS011;40902;45.116;21.296;2024-03-08T01:41:14;21.30;;;15.70;;
55007;SDS011;40902;45.116;21.296;2024-03-08T01:43:42;20.85;;;14.75;;
55007;SDS011;40902;45.116;21.296;2024-03-08T01:46:09;21.95;;;15.82;;
55007;SDS011;40902;45.116;21.296;2024-03-08T01:48:37;21.45;;;15.85;;
55007;SDS011;40902;45.116;21.296;2024-03-08T01:51:06;21.58;;;15.77;;
55007;SDS011;40902;45.116;21.296;2024-03-08T01:53:32;22.77;;;15.65;;
55007;SDS011;40902;45.116;21.296;2024-03-08T01:55:58;19.17;;;15.15;;
55007;SDS011;40902;45.116;21.296;2024-03-08T01:58:31;21.73;;;15.27;;
55007;SDS011;40902;45.116;21.296;2024-03-08T02:00:58;21.08;;;15.43;;
55007;SDS011;40902;45.116;21.296;2024-03-08T02:03:24;19.83;;;14.55;;
55007;SDS011;40902;45.116;21.296;2024-03-08T02:05:50;21.05;;;15.65;;
55007;SDS011;40902;45.116;21.296;2024-03-08T02:08:16;20.17;;;15.25;;
55007;SDS011;40902;45.116;21.296;2024-03-08T02:10:44;21.98;;;16.10;;
55007;SDS011;40902;45.116;21.296;2024-03-08T02:13:10;20.90;;;15.00;;
55007;SDS011;40902;45.116;21.296;2024-03-08T02:15:52;22.35;;;16.55;;
55007;SDS011;40902;45.116;21.296;2024-03-08T02:18:26;22.85;;;16.00;;
55007;SDS011;40902;45.116;21.296;2024-03-08T02:20:54;22.42;;;15.88;;
55007;SDS011;40902;45.116;21.296;2024-03-08T02:23:24;22.23;;;16.08;;
55007;SDS011;40902;45.116;21.296;2024-03-08T02:25:51;21.58;;;15.93;;
55007;SDS011;40902;45.116;21.296;2024-03-08T02:28:18;20.25;;;15.02;;
55007;SDS011;40902;45.116;21.296;2024-03-08T02:30:45;20.67;;;15.05;;
55007;SDS011;40902;45.116;21.296;2024-03-08T02:33:15;20.30;;;15.25;;
55007;SDS011;40902;45.116;21.296;2024-03-08T02:35:43;19.67;;;14.85;;
55007;SDS011;40902;45.116;21.296;2024-03-08T02:38:18;19.58;;;14.43;;
55007;SDS011;40902;45.116;21.296;2024-03-08T02:40:45;21.17;;;15.18;;
55007;SDS011;40902;45.116;21.296;2024-03-08T02:43:13;20.35;;;14.40;;
55007;SDS011;40902;45.116;21.296;2024-03-08T02:45:42;18.73;;;14.30;;
55007;SDS011;40902;45.116;21.296;2024-03-08T02:48:11;20.48;;;13.52;;
55007;SDS011;40902;45.116;21.296;2024-03-08T02:50:38;20.48;;;14.95;;
55007;SDS011;40902;45.116;21.296;2024-03-08T02:53:07;18.63;;;14.02;;
55007;SDS011;40902;45.116;21.296;2024-03-08T02:55:34;19.55;;;13.48;;
55007;SDS011;40902;45.116;21.296;2024-03-08T02:58:01;17.70;;;13.07;;
55007;SDS011;40902;45.116;21.296;2024-03-08T03:00:28;17.55;;;13.52;;
55007;SDS011;40902;45.116;21.296;2024-03-08T03:02:58;20.05;;;13.07;;
55007;SDS011;40902;45.116;21.296;2024-03-08T03:05:24;17.70;;;13.27;;
55007;SDS011;40902;45.116;21.296;2024-03-08T03:07:50;19.30;;;12.90;;
55007;SDS011;40902;45.116;21.296;2024-03-08T03:10:17;16.50;;;12.70;;
55007;SDS011;40902;45.116;21.296;2024-03-08T03:12:43;16.98;;;12.05;;
55007;SDS011;40902;45.116;21.296;2024-03-08T03:15:11;17.33;;;12.77;;
55007;SDS011;40902;45.116;21.296;2024-03-08T03:17:38;20.13;;;12.65;;
55007;SDS011;40902;45.116;21.296;2024-03-08T03:22:30;14.57;;;11.10;;
55007;SDS011;40902;45.116;21.296;2024-03-08T03:24:56;14.20;;;10.93;;
55007;SDS011;40902;45.116;21.296;2024-03-08T03:27:23;14.88;;;11.43;;
55007;SDS011;40902;45.116;21.296;2024-03-08T03:29:50;13.50;;;10.82;;
55007;SDS011;40902;45.116;21.296;2024-03-08T03:32:17;12.63;;;9.93;;
55007;SDS011;40902;45.116;21.296;2024-03-08T03:34:46;15.20;;;11.15;;
55007;SDS011;40902;45.116;21.296;2024-03-08T03:37:12;13.95;;;10.73;;
55007;SDS011;40902;45.116;21.296;2024-03-08T03:39:38;14.20;;;10.57;;
55007;SDS011;40902;45.116;21.296;2024-03-08T03:42:17;13.65;;;10.40;;
55007;SDS011;40902;45.116;21.296;2024-03-08T03:44:44;14.75;;;11.25;;
55007;SDS011;40902;45.116;21.296;2024-03-08T03:47:11;15.77;;;11.38;;
55007;SDS011;40902;45.116;21.296;2024-03-08T03:49:36;13.65;;;10.23;;
55007;SDS011;40902;45.116;21.296;2024-03-08T03:52:02;13.70;;;10.20;;
55007;SDS011;40902;45.116;21.296;2024-03-08T03:54:29;14.07;;;10.90;;
55007;SDS011;40902;45.116;21.296;2024-03-08T03:56:56;14.15;;;10.32;;
55007;SDS011;40902;45.116;21.296;2024-03-08T03:59:21;15.13;;;11.25;;
55007;SDS011;40902;45.116;21.296;2024-03-08T04:01:47;15.85;;;10.90;;
55007;SDS011;40902;45.116;21.296;2024-03-08T04:04:14;16.00;;;11.45;;
55007;SDS011;40902;45.116;21.296;2024-03-08T04:06:40;13.93;;;11.00;;
55007;SDS011;40902;45.116;21.296;2024-03-08T04:09:07;14.25;;;10.38;;
55007;SDS011;40902;45.116;21.296;2024-03-08T04:11:33;14.65;;;11.35;;
55007;SDS011;40902;45.116;21.296;2024-03-08T04:13:59;17.80;;;11.10;;
55007;SDS011;40902;45.116;21.296;2024-03-08T04:16:25;14.77;;;11.20;;
55007;SDS011;40902;45.116;21.296;2024-03-08T04:18:51;15.82;;;11.13;;
55007;SDS011;40902;45.116;21.296;2024-03-08T04:21:17;15.77;;;11.95;;
55007;SDS011;40902;45.116;21.296;2024-03-08T04:23:44;15.73;;;11.57;;
55007;SDS011;40902;45.116;21.296;2024-03-08T04:26:10;15.70;;;11.38;;
55007;SDS011;40902;45.116;21.296;2024-03-08T04:28:36;15.43;;;11.75;;
55007;SDS011;40902;45.116;21.296;2024-03-08T04:31:05;15.65;;;12.07;;
55007;SDS011;40902;45.116;21.296;2024-03-08T04:33:31;16.70;;;11.02;;
55007;SDS011;40902;45.116;21.296;2024-03-08T04:35:59;16.08;;;12.07;;
55007;SDS011;40902;45.116;21.296;2024-03-08T04:38:25;15.35;;;11.98;;
55007;SDS011;40902;45.116;21.296;2024-03-08T04:40:51;17.52;;;12.15;;
55007;SDS011;40902;45.116;21.296;2024-03-08T04:43:17;18.73;;;13.77;;
55007;SDS011;40902;45.116;21.296;2024-03-08T04:45:44;19.08;;;13.60;;
55007;SDS011;40902;45.116;21.296;2024-03-08T04:48:09;18.70;;;12.95;;
55007;SDS011;40902;45.116;21.296;2024-03-08T04:50:36;20.27;;;13.27;;
55007;SDS011;40902;45.116;21.296;2024-03-08T04:53:03;21.60;;;14.18;;
55007;SDS011;40902;45.116;21.296;2024-03-08T04:55:33;20.25;;;14.88;;
55007;SDS011;40902;45.116;21.296;2024-03-08T04:57:59;18.98;;;13.07;;
55007;SDS011;40902;45.116;21.296;2024-03-08T05:00:25;20.52;;;14.63;;
55007;SDS011;40902;45.116;21.296;2024-03-08T05:02:51;21.02;;;15.38;;
55007;SDS011;40902;45.116;21.296;2024-03-08T05:05:18;19.42;;;14.57;;
55007;SDS011;40902;45.116;21.296;2024-03-08T05:07:44;22.08;;;15.73;;
55007;SDS011;40902;45.116;21.296;2024-03-08T05:10:11;21.33;;;14.27;;
55007;SDS011;40902;45.116;21.296;2024-03-08T05:12:36;17.90;;;13.77;;
55007;SDS011;40902;45.116;21.296;2024-03-08T05:15:05;24.58;;;15.70;;
55007;SDS011;40902;45.116;21.296;2024-03-08T05:17:32;22.40;;;15.60;;
55007;SDS011;40902;45.116;21.296;2024-03-08T05:19:58;22.40;;;15.63;;
55007;SDS011;40902;45.116;21.296;2024-03-08T05:22:24;26.38;;;16.20;;
55007;SDS011;40902;45.116;21.296;2024-03-08T05:24:51;23.92;;;15.98;;
55007;SDS011;40902;45.116;21.296;2024-03-08T05:27:16;21.05;;;15.60;;
55007;SDS011;40902;45.116;21.296;2024-03-08T05:29:42;22.80;;;15.20;;
55007;SDS011;40902;45.116;21.296;2024-03-08T05:32:08;22.58;;;15.30;;
55007;SDS011;40902;45.116;21.296;2024-03-08T05:34:35;24.27;;;16.13;;
55007;SDS011;40902;45.116;21.296;2024-03-08T05:37:01;23.88;;;16.27;;
55007;SDS011;40902;45.116;21.296;2024-03-08T05:39:27;20.88;;;15.73;;
55007;SDS011;40902;45.116;21.296;2024-03-08T05:41:53;24.33;;;15.52;;
55007;SDS011;40902;45.116;21.296;2024-03-08T05:44:20;22.65;;;16.27;;
55007;SDS011;40902;45.116;21.296;2024-03-08T05:46:46;24.67;;;16.67;;
55007;SDS011;40902;45.116;21.296;2024-03-08T05:49:12;25.33;;;17.15;;
55007;SDS011;40902;45.116;21.296;2024-03-08T05:51:39;24.95;;;16.08;;
55007;SDS011;40902;45.116;21.296;2024-03-08T05:54:09;23.05;;;15.52;;
55007;SDS011;40902;45.116;21.296;2024-03-08T05:56:36;26.08;;;17.30;;
55007;SDS011;40902;45.116;21.296;2024-03-08T05:59:09;27.35;;;17.85;;
55007;SDS011;40902;45.116;21.296;2024-03-08T06:01:35;23.92;;;17.63;;
55007;SDS011;40902;45.116;21.296;2024-03-08T06:04:01;25.20;;;17.58;;
55007;SDS011;40902;45.116;21.296;2024-03-08T06:06:28;27.63;;;18.83;;
55007;SDS011;40902;45.116;21.296;2024-03-08T06:08:54;26.55;;;17.70;;
55007;SDS011;40902;45.116;21.296;2024-03-08T06:11:24;29.73;;;18.42;;
55007;SDS011;40902;45.116;21.296;2024-03-08T06:13:55;23.70;;;17.58;;
55007;SDS011;40902;45.116;21.296;2024-03-08T06:16:25;26.92;;;17.65;;
55007;SDS011;40902;45.116;21.296;2024-03-08T06:18:54;25.38;;;17.75;;
55007;SDS011;40902;45.116;21.296;2024-03-08T06:21:22;27.45;;;18.00;;
55007;SDS011;40902;45.116;21.296;2024-03-08T06:23:52;25.75;;;17.58;;
55007;SDS011;40902;45.116;21.296;2024-03-08T06:26:20;31.13;;;19.75;;
55007;SDS011;40902;45.116;21.296;2024-03-08T06:28:47;28.75;;;19.38;;
55007;SDS011;40902;45.116;21.296;2024-03-08T06:31:13;27.58;;;17.80;;
55007;SDS011;40902;45.116;21.296;2024-03-08T06:33:40;24.35;;;17.17;;
55007;SDS011;40902;45.116;21.296;2024-03-08T06:36:05;25.05;;;17.23;;
55007;SDS011;40902;45.116;21.296;2024-03-08T06:38:32;24.08;;;16.42;;
55007;SDS011;40902;45.116;21.296;2024-03-08T06:40:58;23.42;;;17.67;;
55007;SDS011;40902;45.116;21.296;2024-03-08T06:43:24;29.23;;;17.92;;
55007;SDS011;40902;45.116;21.296;2024-03-08T06:45:57;23.17;;;17.10;;
55007;SDS011;40902;45.116;21.296;2024-03-08T06:48:23;24.85;;;18.17;;
55007;SDS011;40902;45.116;21.296;2024-03-08T06:50:49;22.52;;;16.88;;
55007;SDS011;40902;45.116;21.296;2024-03-08T06:53:15;28.25;;;17.67;;
55007;SDS011;40902;45.116;21.296;2024-03-08T06:55:44;20.15;;;15.18;;
55007;SDS011;40902;45.116;21.296;2024-03-08T06:58:10;23.17;;;16.30;;
55007;SDS011;40902;45.116;21.296;2024-03-08T07:00:36;23.13;;;15.65;;
55007;SDS011;40902;45.116;21.296;2024-03-08T07:03:03;22.05;;;15.73;;
55007;SDS011;40902;45.116;21.296;2024-03-08T07:05:31;25.40;;;16.15;;
55007;SDS011;40902;45.116;21.296;2024-03-08T07:07:57;25.52;;;15.13;;
55007;SDS011;40902;45.116;21.296;2024-03-08T07:10:23;23.45;;;16.58;;
55007;SDS011;40902;45.116;21.296;2024-03-08T07:12:53;22.42;;;15.23;;
55007;SDS011;40902;45.116;21.296;2024-03-08T07:15:19;21.05;;;16.02;;
55007;SDS011;40902;45.116;21.296;2024-03-08T07:17:46;23.58;;;16.30;;
55007;SDS011;40902;45.116;21.296;2024-03-08T07:20:12;20.63;;;14.23;;
55007;SDS011;40902;45.116;21.296;2024-03-08T07:22:40;20.27;;;13.80;;
55007;SDS011;40902;45.116;21.296;2024-03-08T07:25:06;20.30;;;14.48;;
55007;SDS011;40902;45.116;21.296;2024-03-08T07:27:33;20.27;;;14.13;;
55007;SDS011;40902;45.116;21.296;2024-03-08T07:30:01;18.48;;;13.95;;
55007;SDS011;40902;45.116;21.296;2024-03-08T07:32:30;19.42;;;14.05;;
55007;SDS011;40902;45.116;21.296;2024-03-08T07:34:56;18.85;;;13.68;;
55007;SDS011;40902;45.116;21.296;2024-03-08T07:37:23;16.85;;;12.88;;
55007;SDS011;40902;45.116;21.296;2024-03-08T07:39:49;19.55;;;13.40;;
55007;SDS011;40902;45.116;21.296;2024-03-08T07:42:15;19.13;;;12.82;;
55007;SDS011;40902;45.116;21.296;2024-03-08T07:44:42;19.75;;;13.50;;
55007;SDS011;40902;45.116;21.296;2024-03-08T07:47:08;19.02;;;13.15;;
55007;SDS011;40902;45.116;21.296;2024-03-08T07:49:35;18.30;;;13.20;;
55007;SDS011;40902;45.116;21.296;2024-03-08T07:52:04;15.82;;;12.30;;
55007;SDS011;40902;45.116;21.296;2024-03-08T07:54:32;19.25;;;13.43;;
55007;SDS011;40902;45.116;21.296;2024-03-08T07:57:00;19.65;;;13.52;;
55007;SDS011;40902;45.116;21.296;2024-03-08T07:59:28;17.10;;;12.65;;
55007;SDS011;40902;45.116;21.296;2024-03-08T08:01:55;19.85;;;13.30;;
55007;SDS011;40902;45.116;21.296;2024-03-08T08:04:21;19.65;;;14.00;;
55007;SDS011;40902;45.116;21.296;2024-03-08T08:06:50;16.42;;;12.20;;
55007;SDS011;40902;45.116;21.296;2024-03-08T08:09:16;17.75;;;13.00;;
55007;SDS011;40902;45.116;21.296;2024-03-08T08:11:53;15.85;;;12.23;;
55007;SDS011;40902;45.116;21.296;2024-03-08T08:14:20;17.90;;;12.82;;
55007;SDS011;40902;45.116;21.296;2024-03-08T08:16:46;17.77;;;12.05;;
55007;SDS011;40902;45.116;21.296;2024-03-08T08:19:14;16.77;;;12.38;;
55007;SDS011;40902;45.116;21.296;2024-03-08T08:21:40;16.50;;;12.75;;
55007;SDS011;40902;45.116;21.296;2024-03-08T08:24:06;15.82;;;12.18;;
55007;SDS011;40902;45.116;21.296;2024-03-08T08:26:32;16.48;;;12.60;;
55007;SDS011;40902;45.116;21.296;2024-03-08T08:28:59;14.80;;;11.57;;
55007;SDS011;40902;45.116;21.296;2024-03-08T08:31:25;16.38;;;12.38;;
55007;SDS011;40902;45.116;21.296;2024-03-08T08:33:51;16.77;;;12.30;;
55007;SDS011;40902;45.116;21.296;2024-03-08T08:36:23;16.95;;;12.57;;
55007;SDS011;40902;45.116;21.296;2024-03-08T08:38:50;19.60;;;13.25;;
55007;SDS011;40902;45.116;21.296;2024-03-08T08:41:15;18.65;;;11.98;;
55007;SDS011;40902;45.116;21.296;2024-03-08T08:43:42;17.35;;;12.13;;
55007;SDS011;40902;45.116;21.296;2024-03-08T08:46:11;19.42;;;12.52;;
55007;SDS011;40902;45.116;21.296;2024-03-08T08:48:40;16.35;;;12.35;;
55007;SDS011;40902;45.116;21.296;2024-03-08T08:51:10;15.80;;;12.40;;
55007;SDS011;40902;45.116;21.296;2024-03-08T08:53:40;17.77;;;13.05;;
55007;SDS011;40902;45.116;21.296;2024-03-08T08:56:08;17.77;;;12.70;;
55007;SDS011;40902;45.116;21.296;2024-03-08T08:58:34;19.02;;;13.07;;
55007;SDS011;40902;45.116;21.296;2024-03-08T09:01:00;16.20;;;12.10;;
55007;SDS011;40902;45.116;21.296;2024-03-08T09:03:26;18.25;;;13.30;;
55007;SDS011;40902;45.116;21.296;2024-03-08T09:05:54;16.13;;;12.40;;
55007;SDS011;40902;45.116;21.296;2024-03-08T09:08:21;16.63;;;12.68;;
55007;SDS011;40902;45.116;21.296;2024-03-08T09:10:48;17.23;;;13.05;;
55007;SDS011;40902;45.116;21.296;2024-03-08T09:13:14;17.67;;;12.15;;
55007;SDS011;40902;45.116;21.296;2024-03-08T09:15:40;15.60;;;12.00;;
55007;SDS011;40902;45.116;21.296;2024-03-08T09:18:06;15.68;;;12.57;;
55007;SDS011;40902;45.116;21.296;2024-03-08T09:20:34;16.13;;;12.05;;
55007;SDS011;40902;45.116;21.296;2024-03-08T09:23:00;15.48;;;12.40;;
55007;SDS011;40902;45.116;21.296;2024-03-08T09:25:26;16.42;;;12.25;;
55007;SDS011;40902;45.116;21.296;2024-03-08T09:27:53;17.08;;;11.90;;
55007;SDS011;40902;45.116;21.296;2024-03-08T09:30:19;13.88;;;11.13;;
55007;SDS011;40902;45.116;21.296;2024-03-08T09:32:46;14.63;;;11.63;;
55007;SDS011;40902;45.116;21.296;2024-03-08T09:35:13;15.35;;;11.07;;
55007;SDS011;40902;45.116;21.296;2024-03-08T09:37:40;17.52;;;13.40;;
55007;SDS011;40902;45.116;21.296;2024-03-08T09:40:07;16.10;;;11.65;;
55007;SDS011;40902;45.116;21.296;2024-03-08T09:42:40;15.43;;;11.95;;
55007;SDS011;40902;45.116;21.296;2024-03-08T09:45:10;15.48;;;11.57;;
55007;SDS011;40902;45.116;21.296;2024-03-08T09:47:36;15.98;;;11.65;;
55007;SDS011;40902;45.116;21.296;2024-03-08T09:50:06;16.48;;;12.13;;
55007;SDS011;40902;45.116;21.296;2024-03-08T09:52:37;16.85;;;12.52;;
55007;SDS011;40902;45.116;21.296;2024-03-08T09:55:06;15.05;;;12.25;;
55007;SDS011;40902;45.116;21.296;2024-03-08T09:57:37;17.10;;;11.65;;
55007;SDS011;40902;45.116;21.296;2024-03-08T10:00:05;15.23;;;11.48;;
55007;SDS011;40902;45.116;21.296;2024-03-08T10:02:46;14.30;;;11.38;;
55007;SDS011;40902;45.116;21.296;2024-03-08T10:05:14;16.15;;;12.45;;
55007;SDS011;40902;45.116;21.296;2024-03-08T10:07:40;16.73;;;12.32;;
55007;SDS011;40902;45.116;21.296;2024-03-08T10:10:06;15.75;;;12.57;;
55007;SDS011;40902;45.116;21.296;2024-03-08T10:12:37;14.98;;;11.50;;
55007;SDS011;40902;45.116;21.296;2024-03-08T10:15:15;15.45;;;11.50;;
55007;SDS011;40902;45.116;21.296;2024-03-08T10:17:41;14.82;;;11.63;;
55007;SDS011;40902;45.116;21.296;2024-03-08T10:20:15;15.15;;;10.90;;
55007;SDS011;40902;45.116;21.296;2024-03-08T10:22:42;14.85;;;11.82;;
55007;SDS011;40902;45.116;21.296;2024-03-08T10:25:12;19.42;;;14.43;;
55007;SDS011;40902;45.116;21.296;2024-03-08T10:27:38;14.48;;;10.65;;
55007;SDS011;40902;45.116;21.296;2024-03-08T10:30:11;13.95;;;11.30;;
55007;SDS011;40902;45.116;21.296;2024-03-08T10:32:40;12.30;;;10.18;;
55007;SDS011;40902;45.116;21.296;2024-03-08T10:35:09;13.77;;;10.45;;
55007;SDS011;40902;45.116;21.296;2024-03-08T10:37:58;15.25;;;10.90;;
55007;SDS011;40902;45.116;21.296;2024-03-08T10:40:28;13.07;;;10.75;;
55007;SDS011;40902;45.116;21.296;2024-03-08T10:42:58;14.57;;;10.75;;
55007;SDS011;40902;45.116;21.296;2024-03-08T10:47:52;14.07;;;11.43;;
55007;SDS011;40902;45.116;21.296;2024-03-08T10:50:36;15.10;;;10.95;;
55007;SDS011;40902;45.116;21.296;2024-03-08T10:53:04;15.60;;;11.57;;
55007;SDS011;40902;45.116;21.296;2024-03-08T10:55:32;13.15;;;10.43;;
55007;SDS011;40902;45.116;21.296;2024-03-08T10:58:01;13.05;;;10.18;;
55007;SDS011;40902;45.116;21.296;2024-03-08T11:00:27;12.18;;;9.70;;
55007;SDS011;40902;45.116;21.296;2024-03-08T11:02:56;11.20;;;8.40;;
55007;SDS011;40902;45.116;21.296;2024-03-08T11:05:37;13.57;;;10.07;;
55007;SDS011;40902;45.116;21.296;2024-03-08T11:11:36;12.57;;;9.80;;
55007;SDS011;40902;45.116;21.296;2024-03-08T11:14:02;13.00;;;10.13;;
55007;SDS011;40902;45.116;21.296;2024-03-08T11:19:06;13.80;;;11.00;;
55007;SDS011;40902;45.116;21.296;2024-03-08T11:21:35;17.95;;;13.38;;
55007;SDS011;40902;45.116;21.296;2024-03-08T11:24:08;12.13;;;9.88;;
55007;SDS011;40902;45.116;21.296;2024-03-08T11:26:41;12.32;;;9.63;;
55007;SDS011;40902;45.116;21.296;2024-03-08T11:34:40;11.90;;;8.98;;
55007;SDS011;40902;45.116;21.296;2024-03-08T11:37:17;10.48;;;8.80;;
55007;SDS011;40902;45.116;21.296;2024-03-08T11:39:49;10.23;;;8.45;;
55007;SDS011;40902;45.116;21.296;2024-03-08T11:42:18;11.05;;;8.38;;
55007;SDS011;40902;45.116;21.296;2024-03-08T11:44:45;10.32;;;8.38;;
55007;SDS011;40902;45.116;21.296;2024-03-08T11:47:12;12.82;;;9.35;;
55007;SDS011;40902;45.116;21.296;2024-03-08T11:49:39;10.18;;;8.48;;
55007;SDS011;40902;45.116;21.296;2024-03-08T11:52:12;11.48;;;8.88;;
55007;SDS011;40902;45.116;21.296;2024-03-08T11:54:42;11.57;;;8.82;;
55007;SDS011;40902;45.116;21.296;2024-03-08T11:57:12;10.20;;;8.38;;
55007;SDS011;40902;45.116;21.296;2024-03-08T11:59:38;13.40;;;8.75;;
55007;SDS011;40902;45.116;21.296;2024-03-08T12:02:04;12.23;;;9.02;;
55007;SDS011;40902;45.116;21.296;2024-03-08T12:04:31;10.20;;;8.15;;
55007;SDS011;40902;45.116;21.296;2024-03-08T12:07:01;15.40;;;10.43;;
55007;SDS011;40902;45.116;21.296;2024-03-08T12:09:33;15.50;;;11.55;;
55007;SDS011;40902;45.116;21.296;2024-03-08T12:12:01;16.95;;;12.73;;
55007;SDS011;40902;45.116;21.296;2024-03-08T12:14:29;17.40;;;12.38;;
55007;SDS011;40902;45.116;21.296;2024-03-08T12:16:57;18.33;;;12.38;;
55007;SDS011;40902;45.116;21.296;2024-03-08T12:19:23;16.55;;;12.32;;
55007;SDS011;40902;45.116;21.296;2024-03-08T12:21:49;19.17;;;13.13;;
55007;SDS011;40902;45.116;21.296;2024-03-08T12:24:17;16.55;;;12.68;;
55007;SDS011;40902;45.116;21.296;2024-03-08T12:26:46;18.15;;;13.75;;
55007;SDS011;40902;45.116;21.296;2024-03-08T12:29:20;20.27;;;14.68;;
55007;SDS011;40902;45.116;21.296;2024-03-08T12:31:51;26.13;;;15.07;;
55007;SDS011;40902;45.116;21.296;2024-03-08T12:34:18;21.65;;;16.65;;
55007;SDS011;40902;45.116;21.296;2024-03-08T12:36:45;21.35;;;15.55;;
55007;SDS011;40902;45.116;21.296;2024-03-08T12:39:17;21.10;;;14.48;;
55007;SDS011;40902;45.116;21.296;2024-03-08T12:41:47;23.10;;;14.45;;
55007;SDS011;40902;45.116;21.296;2024-03-08T12:44:14;21.55;;;15.18;;
55007;SDS011;40902;45.116;21.296;2024-03-08T12:46:40;22.15;;;14.43;;
55007;SDS011;40902;45.116;21.296;2024-03-08T12:49:10;24.35;;;16.23;;
55007;SDS011;40902;45.116;21.296;2024-03-08T12:51:37;19.40;;;15.05;;
55007;SDS011;40902;45.116;21.296;2024-03-08T12:54:04;25.65;;;17.30;;
55007;SDS011;40902;45.116;21.296;2024-03-08T12:56:33;21.15;;;15.63;;
55007;SDS011;40902;45.116;21.296;2024-03-08T12:59:00;20.08;;;15.23;;
55007;SDS011;40902;45.116;21.296;2024-03-08T13:01:26;24.70;;;17.08;;
55007;SDS011;40902;45.116;21.296;2024-03-08T13:03:53;26.00;;;16.92;;
55007;SDS011;40902;45.116;21.296;2024-03-08T13:06:20;21.13;;;14.95;;
55007;SDS011;40902;45.116;21.296;2024-03-08T13:08:54;18.15;;;13.98;;
55007;SDS011;40902;45.116;21.296;2024-03-08T13:11:20;19.83;;;14.70;;
55007;SDS011;40902;45.116;21.296;2024-03-08T13:13:47;22.63;;;15.70;;
55007;SDS011;40902;45.116;21.296;2024-03-08T13:16:13;16.67;;;12.65;;
55007;SDS011;40902;45.116;21.296;2024-03-08T13:18:42;18.70;;;13.85;;
55007;SDS011;40902;45.116;21.296;2024-03-08T13:21:11;17.95;;;13.23;;
55007;SDS011;40902;45.116;21.296;2024-03-08T13:23:40;19.48;;;13.70;;
55007;SDS011;40902;45.116;21.296;2024-03-08T13:26:11;17.25;;;12.48;;
55007;SDS011;40902;45.116;21.296;2024-03-08T13:28:41;14.60;;;11.82;;
55007;SDS011;40902;45.116;21.296;2024-03-08T13:31:08;15.73;;;11.13;;
55007;SDS011;40902;45.116;21.296;2024-03-08T13:33:37;14.55;;;10.80;;
55007;SDS011;40902;45.116;21.296;2024-03-08T13:36:07;18.65;;;12.88;;
55007;SDS011;40902;45.116;21.296;2024-03-08T13:38:41;18.92;;;14.68;;
55007;SDS011;40902;45.116;21.296;2024-03-08T13:41:08;18.88;;;14.15;;
55007;SDS011;40902;45.116;21.296;2024-03-08T13:43:34;26.35;;;20.27;;
55007;SDS011;40902;45.116;21.296;2024-03-08T13:46:02;26.35;;;19.42;;
55007;SDS011;40902;45.116;21.296;2024-03-08T13:48:29;18.77;;;13.27;;
55007;SDS011;40902;45.116;21.296;2024-03-08T13:50:56;23.17;;;15.75;;
55007;SDS011;40902;45.116;21.296;2024-03-08T13:53:22;19.27;;;14.82;;
55007;SDS011;40902;45.116;21.296;2024-03-08T13:55:49;20.38;;;14.38;;
55007;SDS011;40902;45.116;21.296;2024-03-08T13:58:15;25.35;;;17.38;;
55007;SDS011;40902;45.116;21.296;2024-03-08T14:00:41;18.67;;;14.30;;
55007;SDS011;40902;45.116;21.296;2024-03-08T14:03:09;22.40;;;15.75;;
55007;SDS011;40902;45.116;21.296;2024-03-08T14:05:38;19.90;;;14.85;;
55007;SDS011;40902;45.116;21.296;2024-03-08T14:08:07;21.48;;;16.13;;
55007;SDS011;40902;45.116;21.296;2024-03-08T14:10:34;24.20;;;15.85;;
55007;SDS011;40902;45.116;21.296;2024-03-08T14:13:02;21.38;;;14.68;;
55007;SDS011;40902;45.116;21.296;2024-03-08T14:15:32;21.83;;;14.63;;
55007;SDS011;40902;45.116;21.296;2024-03-08T14:18:02;24.13;;;16.70;;
55007;SDS011;40902;45.116;21.296;2024-03-08T14:20:31;21.55;;;15.90;;
55007;SDS011;40902;45.116;21.296;2024-03-08T14:22:57;19.27;;;14.52;;
55007;SDS011;40902;45.116;21.296;2024-03-08T14:25:24;21.58;;;14.13;;
55007;SDS011;40902;45.116;21.296;2024-03-08T14:27:50;22.15;;;15.35;;